Terminal Aerodrome Forecast
Issued by NWS

Current Version | Previous Version | Graphics & Text | Print | Product List | Glossary On
Versions: 1 2 3 4 5 6 7 8 9 10 11 12 13 14 15 16 17 18 19 20 21 22 23
698
FTUS41 KRLX 190843 AAA
TAFCKB
TAF AMD
KCKB 190843Z 1909/2006 07008KT P6SM OVC090
     FM191000 09004KT P6SM BKN060
     FM191400 15009G16KT P6SM BKN040
     FM191700 20010G18KT P6SM BKN045
     FM192200 20008G18KT P6SM SHRA VCTS BKN060CB PROB30 1922/1924
      2SM TSRA BKN050CB
     FM200000 20006KT P6SM SHRA BKN050
     FM200500 23005KT P6SM SHRA BKN035=

USA.gov is the U.S. government's official web portal to all federal, state and local government web resources and services.